Tibbie, Alabama
Current Conditions -  °F | °C
As of 9:56 AM on Thursday 27 Nov 2014 (Local Time) from KMOB Reporting Station
Clear Clear  
Wind Chill: 52°   Ceiling: Unl
Heat Index: 52°   Visibility: 10mi
Dew Point: 33°   Wind: 14mph
Humidity: 49%   Direction: 360°N
Pressure: 30.42"   Gusts: NA
Location:  31.37°N, 88.25°W
Report Text: KMOB 271556Z 36012KT 10SM CLR 11/01 A3042 RMK AO2 SLP300 T01110006
Loading
Personal Weather Stations






























Interactive Weather Map New forecast layout! Learn more

10-Day Weather Forecast

Advertisements
Track Severe Weather on mobile